sensor_id;sensor_type;location;lat;lon;timestamp;P1;durP1;ratioP1;P2;durP2;ratioP2
19113;SDS011;9689;51.052;13.772;2023-06-05T00:02:57;4.60;;;1.83;;
19113;SDS011;9689;51.052;13.772;2023-06-05T00:07:59;3.58;;;1.77;;
19113;SDS011;9689;51.052;13.772;2023-06-05T00:13:00;5.07;;;2.45;;
19113;SDS011;9689;51.052;13.772;2023-06-05T00:18:01;5.32;;;1.92;;
19113;SDS011;9689;51.052;13.772;2023-06-05T00:23:04;3.05;;;1.58;;
19113;SDS011;9689;51.052;13.772;2023-06-05T00:28:05;4.07;;;1.90;;
19113;SDS011;9689;51.052;13.772;2023-06-05T00:33:06;7.43;;;1.80;;
19113;SDS011;9689;51.052;13.772;2023-06-05T00:38:08;4.85;;;2.35;;
19113;SDS011;9689;51.052;13.772;2023-06-05T00:43:10;4.97;;;2.20;;
19113;SDS011;9689;51.052;13.772;2023-06-05T00:48:10;3.25;;;2.03;;
19113;SDS011;9689;51.052;13.772;2023-06-05T00:53:13;6.03;;;2.47;;
19113;SDS011;9689;51.052;13.772;2023-06-05T00:58:14;3.30;;;1.98;;
19113;SDS011;9689;51.052;13.772;2023-06-05T01:03:16;6.00;;;2.25;;
19113;SDS011;9689;51.052;13.772;2023-06-05T01:08:18;4.03;;;2.17;;
19113;SDS011;9689;51.052;13.772;2023-06-05T01:13:24;3.85;;;2.20;;
19113;SDS011;9689;51.052;13.772;2023-06-05T01:18:31;5.03;;;1.77;;
19113;SDS011;9689;51.052;13.772;2023-06-05T01:23:33;3.50;;;1.98;;
19113;SDS011;9689;51.052;13.772;2023-06-05T01:28:34;2.63;;;1.70;;
19113;SDS011;9689;51.052;13.772;2023-06-05T01:33:38;3.53;;;1.85;;
19113;SDS011;9689;51.052;13.772;2023-06-05T01:38:46;4.78;;;2.00;;
19113;SDS011;9689;51.052;13.772;2023-06-05T01:43:49;3.97;;;1.80;;
19113;SDS011;9689;51.052;13.772;2023-06-05T01:48:52;5.82;;;2.00;;
19113;SDS011;9689;51.052;13.772;2023-06-05T01:53:54;3.97;;;1.75;;
19113;SDS011;9689;51.052;13.772;2023-06-05T01:58:56;5.88;;;1.85;;
19113;SDS011;9689;51.052;13.772;2023-06-05T02:03:57;3.67;;;1.77;;
19113;SDS011;9689;51.052;13.772;2023-06-05T02:08:59;3.90;;;1.80;;
19113;SDS011;9689;51.052;13.772;2023-06-05T02:14:01;3.60;;;2.10;;
19113;SDS011;9689;51.052;13.772;2023-06-05T02:19:01;2.90;;;1.75;;
19113;SDS011;9689;51.052;13.772;2023-06-05T02:24:04;4.45;;;2.22;;
19113;SDS011;9689;51.052;13.772;2023-06-05T02:29:06;3.08;;;1.90;;
19113;SDS011;9689;51.052;13.772;2023-06-05T02:34:07;4.13;;;1.95;;
19113;SDS011;9689;51.052;13.772;2023-06-05T02:39:09;3.88;;;2.03;;
19113;SDS011;9689;51.052;13.772;2023-06-05T02:44:10;4.13;;;1.67;;
19113;SDS011;9689;51.052;13.772;2023-06-05T02:49:11;6.88;;;2.00;;
19113;SDS011;9689;51.052;13.772;2023-06-05T02:54:13;6.35;;;1.75;;
19113;SDS011;9689;51.052;13.772;2023-06-05T02:59:14;2.80;;;1.60;;
19113;SDS011;9689;51.052;13.772;2023-06-05T03:04:15;4.80;;;1.77;;
19113;SDS011;9689;51.052;13.772;2023-06-05T03:09:23;4.43;;;1.80;;
19113;SDS011;9689;51.052;13.772;2023-06-05T03:14:25;5.43;;;1.92;;
19113;SDS011;9689;51.052;13.772;2023-06-05T03:19:26;4.43;;;2.00;;
19113;SDS011;9689;51.052;13.772;2023-06-05T03:24:32;4.50;;;2.10;;
19113;SDS011;9689;51.052;13.772;2023-06-05T03:29:38;10.23;;;1.83;;
19113;SDS011;9689;51.052;13.772;2023-06-05T03:34:39;3.15;;;1.75;;
19113;SDS011;9689;51.052;13.772;2023-06-05T03:39:44;2.42;;;1.75;;
19113;SDS011;9689;51.052;13.772;2023-06-05T03:44:45;4.70;;;1.83;;
19113;SDS011;9689;51.052;13.772;2023-06-05T03:49:45;4.80;;;2.15;;
19113;SDS011;9689;51.052;13.772;2023-06-05T03:54:50;4.88;;;2.03;;
19113;SDS011;9689;51.052;13.772;2023-06-05T03:59:54;6.38;;;2.05;;
19113;SDS011;9689;51.052;13.772;2023-06-05T04:04:56;4.43;;;1.63;;
19113;SDS011;9689;51.052;13.772;2023-06-05T04:09:58;3.63;;;1.58;;
19113;SDS011;9689;51.052;13.772;2023-06-05T04:14:59;4.78;;;1.92;;
19113;SDS011;9689;51.052;13.772;2023-06-05T04:20:00;4.90;;;1.67;;
19113;SDS011;9689;51.052;13.772;2023-06-05T04:25:02;5.90;;;2.30;;
19113;SDS011;9689;51.052;13.772;2023-06-05T04:30:04;7.65;;;1.98;;
19113;SDS011;9689;51.052;13.772;2023-06-05T04:35:06;3.47;;;2.17;;
19113;SDS011;9689;51.052;13.772;2023-06-05T04:40:11;8.05;;;2.15;;
19113;SDS011;9689;51.052;13.772;2023-06-05T04:45:12;4.95;;;2.00;;
19113;SDS011;9689;51.052;13.772;2023-06-05T04:50:23;5.15;;;2.08;;
19113;SDS011;9689;51.052;13.772;2023-06-05T04:55:40;6.05;;;2.30;;
19113;SDS011;9689;51.052;13.772;2023-06-05T05:00:41;4.93;;;2.15;;
19113;SDS011;9689;51.052;13.772;2023-06-05T05:05:44;7.40;;;2.25;;
19113;SDS011;9689;51.052;13.772;2023-06-05T05:10:46;4.75;;;2.42;;
19113;SDS011;9689;51.052;13.772;2023-06-05T05:15:47;4.28;;;2.20;;
19113;SDS011;9689;51.052;13.772;2023-06-05T05:20:52;3.85;;;2.42;;
19113;SDS011;9689;51.052;13.772;2023-06-05T05:25:54;6.97;;;2.20;;
19113;SDS011;9689;51.052;13.772;2023-06-05T05:30:55;5.43;;;2.33;;
19113;SDS011;9689;51.052;13.772;2023-06-05T05:35:57;4.65;;;2.30;;
19113;SDS011;9689;51.052;13.772;2023-06-05T05:40:59;6.88;;;2.35;;
19113;SDS011;9689;51.052;13.772;2023-06-05T05:46:00;5.13;;;2.22;;
19113;SDS011;9689;51.052;13.772;2023-06-05T05:51:04;6.90;;;2.97;;
19113;SDS011;9689;51.052;13.772;2023-06-05T05:56:08;11.52;;;3.10;;
19113;SDS011;9689;51.052;13.772;2023-06-05T06:01:09;7.28;;;2.25;;
19113;SDS011;9689;51.052;13.772;2023-06-05T06:06:10;8.60;;;2.67;;
19113;SDS011;9689;51.052;13.772;2023-06-05T06:11:13;7.57;;;2.35;;
19113;SDS011;9689;51.052;13.772;2023-06-05T06:16:14;23.50;;;3.20;;
19113;SDS011;9689;51.052;13.772;2023-06-05T06:21:15;7.93;;;2.28;;
19113;SDS011;9689;51.052;13.772;2023-06-05T06:26:18;12.23;;;3.88;;
19113;SDS011;9689;51.052;13.772;2023-06-05T06:31:19;6.97;;;2.60;;
19113;SDS011;9689;51.052;13.772;2023-06-05T06:36:20;6.22;;;2.30;;
19113;SDS011;9689;51.052;13.772;2023-06-05T06:41:24;7.53;;;2.50;;
19113;SDS011;9689;51.052;13.772;2023-06-05T06:46:25;7.03;;;2.72;;
19113;SDS011;9689;51.052;13.772;2023-06-05T06:51:26;8.43;;;3.33;;
19113;SDS011;9689;51.052;13.772;2023-06-05T06:56:28;7.05;;;2.13;;
19113;SDS011;9689;51.052;13.772;2023-06-05T07:01:29;6.20;;;2.50;;
19113;SDS011;9689;51.052;13.772;2023-06-05T07:06:30;10.13;;;2.40;;
19113;SDS011;9689;51.052;13.772;2023-06-05T07:11:33;11.35;;;2.40;;
19113;SDS011;9689;51.052;13.772;2023-06-05T07:16:34;13.13;;;2.38;;
19113;SDS011;9689;51.052;13.772;2023-06-05T07:21:35;8.02;;;2.42;;
19113;SDS011;9689;51.052;13.772;2023-06-05T07:26:38;6.38;;;2.35;;
19113;SDS011;9689;51.052;13.772;2023-06-05T07:31:39;8.57;;;2.35;;
19113;SDS011;9689;51.052;13.772;2023-06-05T07:36:39;6.47;;;2.42;;
19113;SDS011;9689;51.052;13.772;2023-06-05T07:41:42;7.88;;;2.40;;
19113;SDS011;9689;51.052;13.772;2023-06-05T07:46:43;6.95;;;2.33;;
19113;SDS011;9689;51.052;13.772;2023-06-05T07:51:45;7.13;;;2.58;;
19113;SDS011;9689;51.052;13.772;2023-06-05T07:56:49;6.75;;;2.20;;
19113;SDS011;9689;51.052;13.772;2023-06-05T08:01:50;7.18;;;2.10;;
19113;SDS011;9689;51.052;13.772;2023-06-05T08:06:51;6.50;;;2.55;;
19113;SDS011;9689;51.052;13.772;2023-06-05T08:11:53;8.80;;;2.08;;
19113;SDS011;9689;51.052;13.772;2023-06-05T08:16:55;11.02;;;2.35;;
19113;SDS011;9689;51.052;13.772;2023-06-05T08:21:55;6.53;;;2.33;;
19113;SDS011;9689;51.052;13.772;2023-06-05T08:26:58;9.35;;;2.35;;
19113;SDS011;9689;51.052;13.772;2023-06-05T08:32:00;7.60;;;2.10;;
19113;SDS011;9689;51.052;13.772;2023-06-05T08:37:00;7.28;;;2.30;;
19113;SDS011;9689;51.052;13.772;2023-06-05T08:42:03;10.82;;;2.10;;
19113;SDS011;9689;51.052;13.772;2023-06-05T08:47:05;11.88;;;2.35;;
19113;SDS011;9689;51.052;13.772;2023-06-05T08:52:08;9.27;;;2.20;;
19113;SDS011;9689;51.052;13.772;2023-06-05T08:57:10;4.72;;;2.40;;
19113;SDS011;9689;51.052;13.772;2023-06-05T09:02:11;5.38;;;2.20;;
19113;SDS011;9689;51.052;13.772;2023-06-05T09:07:11;5.50;;;2.25;;
19113;SDS011;9689;51.052;13.772;2023-06-05T09:12:14;5.63;;;2.45;;
19113;SDS011;9689;51.052;13.772;2023-06-05T09:17:14;5.55;;;2.40;;
19113;SDS011;9689;51.052;13.772;2023-06-05T09:22:16;7.32;;;2.25;;
19113;SDS011;9689;51.052;13.772;2023-06-05T09:27:34;6.13;;;2.35;;
19113;SDS011;9689;51.052;13.772;2023-06-05T09:32:35;5.45;;;2.78;;
19113;SDS011;9689;51.052;13.772;2023-06-05T09:37:37;4.45;;;2.40;;
19113;SDS011;9689;51.052;13.772;2023-06-05T09:42:39;6.68;;;2.75;;
19113;SDS011;9689;51.052;13.772;2023-06-05T09:47:40;4.45;;;2.38;;
19113;SDS011;9689;51.052;13.772;2023-06-05T09:52:52;4.72;;;2.58;;
19113;SDS011;9689;51.052;13.772;2023-06-05T09:57:58;5.38;;;2.63;;
19113;SDS011;9689;51.052;13.772;2023-06-05T10:03:00;3.67;;;2.42;;
19113;SDS011;9689;51.052;13.772;2023-06-05T10:08:05;10.02;;;3.08;;
19113;SDS011;9689;51.052;13.772;2023-06-05T10:13:08;4.38;;;2.15;;
19113;SDS011;9689;51.052;13.772;2023-06-05T10:18:09;9.88;;;3.25;;
19113;SDS011;9689;51.052;13.772;2023-06-05T10:23:10;6.38;;;2.80;;
19113;SDS011;9689;51.052;13.772;2023-06-05T10:28:18;6.40;;;2.42;;
19113;SDS011;9689;51.052;13.772;2023-06-05T10:33:34;4.60;;;2.60;;
19113;SDS011;9689;51.052;13.772;2023-06-05T10:38:46;8.15;;;2.75;;
19113;SDS011;9689;51.052;13.772;2023-06-05T10:43:49;3.67;;;2.30;;
19113;SDS011;9689;51.052;13.772;2023-06-05T10:49:07;9.55;;;2.72;;
19113;SDS011;9689;51.052;13.772;2023-06-05T10:54:11;5.32;;;2.33;;
19113;SDS011;9689;51.052;13.772;2023-06-05T10:59:17;4.28;;;2.00;;
19113;SDS011;9689;51.052;13.772;2023-06-05T11:04:20;5.38;;;2.00;;
19113;SDS011;9689;51.052;13.772;2023-06-05T11:09:26;4.10;;;2.40;;
19113;SDS011;9689;51.052;13.772;2023-06-05T11:14:44;7.95;;;2.88;;
19113;SDS011;9689;51.052;13.772;2023-06-05T11:19:46;4.95;;;2.15;;
19113;SDS011;9689;51.052;13.772;2023-06-05T11:24:47;4.10;;;2.10;;
19113;SDS011;9689;51.052;13.772;2023-06-05T11:30:29;8.23;;;2.17;;
19113;SDS011;9689;51.052;13.772;2023-06-05T11:35:46;7.97;;;2.22;;
19113;SDS011;9689;51.052;13.772;2023-06-05T11:40:49;3.30;;;1.85;;
19113;SDS011;9689;51.052;13.772;2023-06-05T11:45:51;7.35;;;2.47;;
19113;SDS011;9689;51.052;13.772;2023-06-05T11:50:54;4.93;;;2.33;;
19113;SDS011;9689;51.052;13.772;2023-06-05T11:55:57;5.03;;;2.20;;
19113;SDS011;9689;51.052;13.772;2023-06-05T12:01:16;2.53;;;1.92;;
19113;SDS011;9689;51.052;13.772;2023-06-05T12:06:21;3.55;;;2.00;;
19113;SDS011;9689;51.052;13.772;2023-06-05T12:11:24;5.75;;;2.42;;
19113;SDS011;9689;51.052;13.772;2023-06-05T12:16:31;3.10;;;2.13;;
19113;SDS011;9689;51.052;13.772;2023-06-05T12:21:34;5.20;;;2.20;;
19113;SDS011;9689;51.052;13.772;2023-06-05T12:26:48;11.07;;;2.80;;
19113;SDS011;9689;51.052;13.772;2023-06-05T12:31:52;4.50;;;2.30;;
19113;SDS011;9689;51.052;13.772;2023-06-05T12:36:53;4.68;;;2.33;;
19113;SDS011;9689;51.052;13.772;2023-06-05T12:41:57;4.57;;;2.30;;
19113;SDS011;9689;51.052;13.772;2023-06-05T12:46:58;6.82;;;2.90;;
19113;SDS011;9689;51.052;13.772;2023-06-05T12:51:59;3.80;;;2.30;;
19113;SDS011;9689;51.052;13.772;2023-06-05T12:57:03;6.30;;;2.42;;
19113;SDS011;9689;51.052;13.772;2023-06-05T13:02:10;4.82;;;2.17;;
19113;SDS011;9689;51.052;13.772;2023-06-05T13:07:11;8.20;;;3.10;;
19113;SDS011;9689;51.052;13.772;2023-06-05T13:12:13;9.48;;;3.00;;
19113;SDS011;9689;51.052;13.772;2023-06-05T13:17:14;5.22;;;2.20;;
19113;SDS011;9689;51.052;13.772;2023-06-05T13:22:15;4.32;;;2.38;;
19113;SDS011;9689;51.052;13.772;2023-06-05T13:27:20;3.63;;;2.38;;
19113;SDS011;9689;51.052;13.772;2023-06-05T13:32:21;4.10;;;2.50;;
19113;SDS011;9689;51.052;13.772;2023-06-05T13:37:22;4.50;;;2.25;;
19113;SDS011;9689;51.052;13.772;2023-06-05T13:42:24;4.80;;;1.95;;
19113;SDS011;9689;51.052;13.772;2023-06-05T13:47:25;3.80;;;2.47;;
19113;SDS011;9689;51.052;13.772;2023-06-05T13:52:25;5.97;;;2.63;;
19113;SDS011;9689;51.052;13.772;2023-06-05T13:57:28;4.53;;;2.42;;
19113;SDS011;9689;51.052;13.772;2023-06-05T14:02:29;7.70;;;2.47;;
19113;SDS011;9689;51.052;13.772;2023-06-05T14:07:29;6.18;;;2.63;;
19113;SDS011;9689;51.052;13.772;2023-06-05T14:12:48;5.85;;;2.45;;
19113;SDS011;9689;51.052;13.772;2023-06-05T14:17:50;8.73;;;2.58;;
19113;SDS011;9689;51.052;13.772;2023-06-05T14:22:51;2.88;;;2.05;;
19113;SDS011;9689;51.052;13.772;2023-06-05T14:27:54;5.88;;;2.40;;
19113;SDS011;9689;51.052;13.772;2023-06-05T14:32:56;6.80;;;3.03;;
19113;SDS011;9689;51.052;13.772;2023-06-05T14:37:56;3.50;;;2.47;;
19113;SDS011;9689;51.052;13.772;2023-06-05T14:42:59;5.40;;;2.10;;
19113;SDS011;9689;51.052;13.772;2023-06-05T14:47:59;4.63;;;2.70;;
19113;SDS011;9689;51.052;13.772;2023-06-05T14:53:00;7.13;;;2.25;;
19113;SDS011;9689;51.052;13.772;2023-06-05T14:58:05;5.20;;;1.80;;
19113;SDS011;9689;51.052;13.772;2023-06-05T15:03:09;5.75;;;2.25;;
19113;SDS011;9689;51.052;13.772;2023-06-05T15:08:10;7.32;;;2.13;;
19113;SDS011;9689;51.052;13.772;2023-06-05T15:13:12;4.50;;;2.42;;
19113;SDS011;9689;51.052;13.772;2023-06-05T15:18:13;5.90;;;2.00;;
19113;SDS011;9689;51.052;13.772;2023-06-05T15:23:14;5.07;;;2.42;;
19113;SDS011;9689;51.052;13.772;2023-06-05T15:28:16;6.07;;;2.47;;
19113;SDS011;9689;51.052;13.772;2023-06-05T15:33:17;5.10;;;3.05;;
19113;SDS011;9689;51.052;13.772;2023-06-05T15:38:18;8.15;;;3.40;;
19113;SDS011;9689;51.052;13.772;2023-06-05T15:43:20;5.00;;;2.28;;
19113;SDS011;9689;51.052;13.772;2023-06-05T15:48:21;7.47;;;2.72;;
19113;SDS011;9689;51.052;13.772;2023-06-05T15:53:22;9.30;;;2.60;;
19113;SDS011;9689;51.052;13.772;2023-06-05T15:58:24;7.95;;;2.78;;
19113;SDS011;9689;51.052;13.772;2023-06-05T16:03:24;5.85;;;2.67;;
19113;SDS011;9689;51.052;13.772;2023-06-05T16:08:25;4.90;;;2.30;;
19113;SDS011;9689;51.052;13.772;2023-06-05T16:13:27;6.60;;;2.28;;
19113;SDS011;9689;51.052;13.772;2023-06-05T16:18:28;8.48;;;2.60;;
19113;SDS011;9689;51.052;13.772;2023-06-05T16:23:29;5.38;;;2.13;;
19113;SDS011;9689;51.052;13.772;2023-06-05T16:28:31;4.95;;;2.33;;
19113;SDS011;9689;51.052;13.772;2023-06-05T16:33:31;8.85;;;2.42;;
19113;SDS011;9689;51.052;13.772;2023-06-05T16:38:32;6.22;;;3.05;;
19113;SDS011;9689;51.052;13.772;2023-06-05T16:43:34;7.53;;;2.47;;
19113;SDS011;9689;51.052;13.772;2023-06-05T16:48:35;9.27;;;2.30;;
19113;SDS011;9689;51.052;13.772;2023-06-05T16:53:36;4.35;;;2.13;;
19113;SDS011;9689;51.052;13.772;2023-06-05T16:58:38;8.25;;;3.05;;
19113;SDS011;9689;51.052;13.772;2023-06-05T17:03:39;7.97;;;2.90;;
19113;SDS011;9689;51.052;13.772;2023-06-05T17:08:40;8.77;;;3.17;;
19113;SDS011;9689;51.052;13.772;2023-06-05T17:13:42;10.82;;;3.03;;
19113;SDS011;9689;51.052;13.772;2023-06-05T17:18:42;5.63;;;3.15;;
19113;SDS011;9689;51.052;13.772;2023-06-05T17:23:43;8.77;;;3.40;;
19113;SDS011;9689;51.052;13.772;2023-06-05T17:28:45;7.85;;;3.05;;
19113;SDS011;9689;51.052;13.772;2023-06-05T17:33:46;12.05;;;3.95;;
19113;SDS011;9689;51.052;13.772;2023-06-05T17:38:47;8.30;;;3.35;;
19113;SDS011;9689;51.052;13.772;2023-06-05T17:43:50;9.10;;;4.60;;
19113;SDS011;9689;51.052;13.772;2023-06-05T17:48:52;11.30;;;5.03;;
19113;SDS011;9689;51.052;13.772;2023-06-05T17:53:53;10.20;;;3.97;;
19113;SDS011;9689;51.052;13.772;2023-06-05T17:58:55;17.15;;;4.15;;
19113;SDS011;9689;51.052;13.772;2023-06-05T18:03:56;7.80;;;3.10;;
19113;SDS011;9689;51.052;13.772;2023-06-05T18:08:58;8.20;;;3.20;;
19113;SDS011;9689;51.052;13.772;2023-06-05T18:14:00;8.32;;;4.07;;
19113;SDS011;9689;51.052;13.772;2023-06-05T18:19:03;6.80;;;3.40;;
19113;SDS011;9689;51.052;13.772;2023-06-05T18:24:04;7.38;;;3.33;;
19113;SDS011;9689;51.052;13.772;2023-06-05T18:29:06;10.10;;;3.50;;
19113;SDS011;9689;51.052;13.772;2023-06-05T18:34:07;10.88;;;3.85;;
19113;SDS011;9689;51.052;13.772;2023-06-05T18:39:08;8.35;;;4.05;;
19113;SDS011;9689;51.052;13.772;2023-06-05T18:44:10;8.48;;;3.80;;
19113;SDS011;9689;51.052;13.772;2023-06-05T18:49:10;11.55;;;4.03;;
19113;SDS011;9689;51.052;13.772;2023-06-05T18:54:11;5.95;;;3.20;;
19113;SDS011;9689;51.052;13.772;2023-06-05T18:59:13;7.75;;;3.60;;
19113;SDS011;9689;51.052;13.772;2023-06-05T19:04:14;5.88;;;3.40;;
19113;SDS011;9689;51.052;13.772;2023-06-05T19:09:15;7.75;;;3.72;;
19113;SDS011;9689;51.052;13.772;2023-06-05T19:14:17;7.57;;;3.40;;
19113;SDS011;9689;51.052;13.772;2023-06-05T19:19:18;7.88;;;3.33;;
19113;SDS011;9689;51.052;13.772;2023-06-05T19:24:19;7.97;;;3.60;;
19113;SDS011;9689;51.052;13.772;2023-06-05T19:29:21;6.63;;;3.60;;
19113;SDS011;9689;51.052;13.772;2023-06-05T19:34:22;12.02;;;6.30;;
19113;SDS011;9689;51.052;13.772;2023-06-05T19:39:22;12.52;;;6.45;;
19113;SDS011;9689;51.052;13.772;2023-06-05T19:44:24;8.20;;;3.95;;
19113;SDS011;9689;51.052;13.772;2023-06-05T19:49:25;6.63;;;3.88;;
19113;SDS011;9689;51.052;13.772;2023-06-05T19:54:26;4.50;;;2.92;;
19113;SDS011;9689;51.052;13.772;2023-06-05T19:59:28;5.47;;;3.13;;
19113;SDS011;9689;51.052;13.772;2023-06-05T20:04:29;6.93;;;3.88;;
19113;SDS011;9689;51.052;13.772;2023-06-05T20:09:29;8.38;;;3.25;;
19113;SDS011;9689;51.052;13.772;2023-06-05T20:14:31;7.72;;;3.70;;
19113;SDS011;9689;51.052;13.772;2023-06-05T20:19:34;8.23;;;4.07;;
19113;SDS011;9689;51.052;13.772;2023-06-05T20:24:36;14.02;;;8.00;;
19113;SDS011;9689;51.052;13.772;2023-06-05T20:29:41;6.45;;;3.50;;
19113;SDS011;9689;51.052;13.772;2023-06-05T20:34:42;8.02;;;3.42;;
19113;SDS011;9689;51.052;13.772;2023-06-05T20:39:44;10.02;;;3.85;;
19113;SDS011;9689;51.052;13.772;2023-06-05T20:44:47;6.47;;;3.67;;
19113;SDS011;9689;51.052;13.772;2023-06-05T20:49:47;6.00;;;3.60;;
19113;SDS011;9689;51.052;13.772;2023-06-05T20:54:48;5.53;;;3.45;;
19113;SDS011;9689;51.052;13.772;2023-06-05T20:59:50;8.00;;;3.45;;
19113;SDS011;9689;51.052;13.772;2023-06-05T21:04:51;5.18;;;3.33;;
19113;SDS011;9689;51.052;13.772;2023-06-05T21:09:52;7.70;;;3.45;;
19113;SDS011;9689;51.052;13.772;2023-06-05T21:14:54;8.63;;;4.40;;
19113;SDS011;9689;51.052;13.772;2023-06-05T21:19:55;5.28;;;3.42;;
19113;SDS011;9689;51.052;13.772;2023-06-05T21:24:55;7.13;;;4.35;;
19113;SDS011;9689;51.052;13.772;2023-06-05T21:29:57;11.13;;;3.97;;
19113;SDS011;9689;51.052;13.772;2023-06-05T21:34:58;25.05;;;13.05;;
19113;SDS011;9689;51.052;13.772;2023-06-05T21:39:59;21.48;;;11.85;;
19113;SDS011;9689;51.052;13.772;2023-06-05T21:45:01;9.02;;;5.03;;
19113;SDS011;9689;51.052;13.772;2023-06-05T21:50:02;9.02;;;4.60;;
19113;SDS011;9689;51.052;13.772;2023-06-05T21:55:03;8.82;;;3.85;;
19113;SDS011;9689;51.052;13.772;2023-06-05T22:00:06;6.15;;;3.92;;
19113;SDS011;9689;51.052;13.772;2023-06-05T22:05:13;6.68;;;3.30;;
19113;SDS011;9689;51.052;13.772;2023-06-05T22:10:14;7.30;;;3.95;;
19113;SDS011;9689;51.052;13.772;2023-06-05T22:15:16;7.20;;;3.00;;
19113;SDS011;9689;51.052;13.772;2023-06-05T22:20:19;8.40;;;3.00;;
19113;SDS011;9689;51.052;13.772;2023-06-05T22:25:20;7.40;;;3.17;;
19113;SDS011;9689;51.052;13.772;2023-06-05T22:30:22;6.32;;;3.80;;
19113;SDS011;9689;51.052;13.772;2023-06-05T22:35:23;7.60;;;4.10;;
19113;SDS011;9689;51.052;13.772;2023-06-05T22:40:23;6.75;;;3.38;;
19113;SDS011;9689;51.052;13.772;2023-06-05T22:45:25;6.13;;;3.40;;
19113;SDS011;9689;51.052;13.772;2023-06-05T22:50:26;7.07;;;3.60;;
19113;SDS011;9689;51.052;13.772;2023-06-05T22:55:27;6.20;;;3.50;;
19113;SDS011;9689;51.052;13.772;2023-06-05T23:00:30;8.55;;;3.55;;
19113;SDS011;9689;51.052;13.772;2023-06-05T23:05:31;7.78;;;3.78;;
19113;SDS011;9689;51.052;13.772;2023-06-05T23:10:34;6.80;;;3.72;;
19113;SDS011;9689;51.052;13.772;2023-06-05T23:15:36;7.20;;;3.85;;
19113;SDS011;9689;51.052;13.772;2023-06-05T23:20:42;7.80;;;3.55;;
19113;SDS011;9689;51.052;13.772;2023-06-05T23:25:43;6.65;;;3.85;;
19113;SDS011;9689;51.052;13.772;2023-06-05T23:30:45;7.25;;;4.07;;
19113;SDS011;9689;51.052;13.772;2023-06-05T23:35:46;7.07;;;4.00;;
19113;SDS011;9689;51.052;13.772;2023-06-05T23:40:47;9.52;;;4.45;;
19113;SDS011;9689;51.052;13.772;2023-06-05T23:45:50;12.35;;;5.10;;
19113;SDS011;9689;51.052;13.772;2023-06-05T23:50:51;5.88;;;4.30;;
19113;SDS011;9689;51.052;13.772;2023-06-05T23:55:52;6.82;;;4.07;;
